Time;durP1;ratioP1;P1;durP2;ratioP2;P2;SDS_P1;SDS_P2;PMS_P1;PMS_P2;Temp;Humidity;BMP_temperature;BMP_pressure;BME280_temperature;BME280_humidity;BME280_pressure;Samples;Min_cycle;Max_cycle;Signal;HPM_P1;HPM_P2
2022/10/13 07:43:58;;;;;;;;;33.50;32.00;;;;;;;;5103668;27;14314;-75
2022/10/13 07:46:24;;;;;;;;;35.00;31.50;;;;;;;;5107566;28;11507;-75
2022/10/13 07:48:53;;;;;;;;;34.50;31.75;;;;;;;;5107407;28;8938;-75
2022/10/13 07:51:18;;;;;;;;;34.25;30.50;;;;;;;;5107143;28;8799;-75
2022/10/13 07:53:45;;;;;;;;;24.25;21.25;;;;;;;;5105872;28;11527;-75
2022/10/13 07:56:12;;;;;;;;;28.00;22.75;;;;;;;;5107365;28;8811;-73
2022/10/13 07:58:38;;;;;;;;;23.75;21.75;;;;;;;;5106990;28;11432;-74
2022/10/13 08:01:03;;;;;;;;;57.75;47.25;;;;;;;;5107145;28;11212;-74
2022/10/13 08:03:28;;;;;;;;;49.00;40.75;;;;;;;;5106509;28;8807;-74
2022/10/13 08:05:54;;;;;;;;;24.00;23.25;;;;;;;;5106797;28;8810;-74
2022/10/13 08:08:20;;;;;;;;;25.00;23.75;;;;;;;;5106929;28;8792;-74
2022/10/13 08:10:45;;;;;;;;;22.50;22.25;;;;;;;;5105630;28;8792;-75
2022/10/13 08:13:10;;;;;;;;;26.25;22.75;;;;;;;;5121154;27;11513;-74
2022/10/13 08:15:40;;;;;;;;;23.50;23.00;;;;;;;;5127378;27;8844;-74
2022/10/13 08:18:05;;;;;;;;;17.50;16.00;;;;;;;;5128608;27;8777;-74
2022/10/13 08:20:30;;;;;;;;;17.50;16.25;;;;;;;;5129954;27;10138;-74
2022/10/13 08:22:56;;;;;;;;;22.50;22.50;;;;;;;;5127667;27;8812;-74
2022/10/13 08:25:21;;;;;;;;;28.25;26.75;;;;;;;;5127153;27;8809;-74
2022/10/13 08:27:46;;;;;;;;;28.75;25.75;;;;;;;;5127140;27;8958;-74
2022/10/13 08:30:12;;;;;;;;;35.00;30.00;;;;;;;;5127189;27;8789;-74
2022/10/13 08:32:37;;;;;;;;;29.25;27.00;;;;;;;;5125677;27;8885;-74
2022/10/13 08:35:02;;;;;;;;;18.75;17.25;;;;;;;;5126719;27;8778;-74
2022/10/13 08:37:28;;;;;;;;;31.25;31.00;;;;;;;;5127046;27;8838;-74
2022/10/13 08:39:56;;;;;;;;;28.25;28.25;;;;;;;;5126755;27;8797;-75
2022/10/13 08:42:22;;;;;;;;;25.25;24.00;;;;;;;;5126654;27;8925;-74
2022/10/13 08:44:49;;;;;;;;;28.25;23.75;;;;;;;;5126819;27;11043;-74
2022/10/13 08:47:32;;;;;;;;;23.00;21.00;;;;;;;;5125593;27;8881;-75
2022/10/13 08:50:00;;;;;;;;;26.00;24.75;;;;;;;;5126744;27;11005;-74
2022/10/13 08:52:26;;;;;;;;;21.25;18.00;;;;;;;;5126749;27;10460;-74
2022/10/13 08:54:52;;;;;;;;;27.75;24.75;;;;;;;;5115412;27;11067;-74
2022/10/13 08:57:18;;;;;;;;;24.50;23.50;;;;;;;;5112550;28;10048;-74
2022/10/13 08:59:43;;;;;;;;;25.25;23.75;;;;;;;;5112729;28;9778;-75
2022/10/13 09:02:13;;;;;;;;;26.50;23.50;;;;;;;;5112816;28;8919;-73
2022/10/13 09:04:40;;;;;;;;;24.00;22.00;;;;;;;;5112702;28;8873;-74
2022/10/13 09:07:08;;;;;;;;;26.67;25.67;;;;;;;;5111695;28;9350;-75
2022/10/13 09:09:34;;;;;;;;;27.00;24.00;;;;;;;;5112977;28;9956;-74
2022/10/13 09:12:00;;;;;;;;;27.00;25.00;;;;;;;;5112629;28;9306;-73
2022/10/13 09:14:30;;;;;;;;;21.67;20.00;;;;;;;;5112217;28;12262;-75
2022/10/13 09:17:10;;;;;;;;;22.75;21.50;;;;;;;;5112452;28;8888;-75
2022/10/13 09:19:36;;;;;;;;;26.33;23.67;;;;;;;;5112756;28;8785;-74
2022/10/13 09:22:14;;;;;;;;;21.00;20.00;;;;;;;;5112460;28;9005;-74
2022/10/13 09:24:39;;;;;;;;;23.00;21.00;;;;;;;;5111377;28;8815;-74
2022/10/13 09:27:06;;;;;;;;;22.00;19.00;;;;;;;;5112283;28;8858;-74
2022/10/13 09:29:31;;;;;;;;;21.50;19.00;;;;;;;;5112466;28;8781;-75
2022/10/13 09:32:26;;;;;;;;;20.67;20.67;;;;;;;;5112057;28;8991;-75
2022/10/13 09:34:52;;;;;;;;;22.00;21.75;;;;;;;;5012808;28;8778;-75
2022/10/13 09:37:17;;;;;;;;;20.33;20.33;;;;;;;;5029848;28;8800;-74
2022/10/13 09:39:43;;;;;;;;;20.67;20.67;;;;;;;;5030453;28;8798;-75
2022/10/13 09:42:28;;;;;;;;;23.67;22.67;;;;;;;;5029284;28;8838;-75
2022/10/13 09:44:57;;;;;;;;;20.50;19.00;;;;;;;;5028679;28;8808;-75
2022/10/13 09:47:25;;;;;;;;;17.25;16.00;;;;;;;;5029027;28;9512;-75
2022/10/13 09:49:58;;;;;;;;;22.25;19.25;;;;;;;;5012000;28;9587;-74
2022/10/13 09:52:24;;;;;;;;;18.75;17.25;;;;;;;;5012076;28;8837;-74
2022/10/13 09:54:51;;;;;;;;;18.33;18.33;;;;;;;;5029165;28;8778;-75
2022/10/13 09:57:24;;;;;;;;;18.00;17.00;;;;;;;;5028901;28;8814;-72
2022/10/13 09:59:50;;;;;;;;;18.75;18.25;;;;;;;;5012546;28;8817;-82
2022/10/13 10:02:27;;;;;;;;;18.25;16.00;;;;;;;;5012381;28;8797;-76
2022/10/13 10:04:54;;;;;;;;;15.40;15.40;;;;;;;;5028224;28;8822;-78
2022/10/13 10:07:20;;;;;;;;;18.40;17.40;;;;;;;;5011013;28;8826;-69
2022/10/13 10:09:51;;;;;;;;;17.60;17.60;;;;;;;;5011665;28;8786;-72
2022/10/13 10:12:19;;;;;;;;;17.00;15.00;;;;;;;;5104964;28;8865;-71
2022/10/13 10:14:44;;;;;;;;;17.80;16.80;;;;;;;;5111166;28;8857;-72
2022/10/13 10:17:20;;;;;;;;;17.00;17.00;;;;;;;;5111164;28;8884;-72
2022/10/13 10:19:50;;;;;;;;;18.00;18.00;;;;;;;;5110956;28;8800;-75
2022/10/13 10:22:16;;;;;;;;;15.00;13.40;;;;;;;;5111119;28;8889;-72
2022/10/13 10:24:52;;;;;;;;;12.75;12.75;;;;;;;;5110902;28;8785;-75
2022/10/13 10:27:17;;;;;;;;;15.00;13.00;;;;;;;;5110486;28;9546;-73
2022/10/13 10:29:57;;;;;;;;;15.25;13.75;;;;;;;;5109245;28;8894;-73
2022/10/13 10:32:22;;;;;;;;;13.40;12.00;;;;;;;;5110948;28;8831;-72
2022/10/13 10:34:47;;;;;;;;;11.00;10.25;;;;;;;;5110711;28;9592;-76
2022/10/13 10:37:15;;;;;;;;;13.75;13.00;;;;;;;;5111090;28;8770;-73
2022/10/13 10:39:48;;;;;;;;;11.20;11.00;;;;;;;;5111406;27;8854;-72
2022/10/13 10:42:26;;;;;;;;;13.60;11.60;;;;;;;;5109810;28;8952;-72
2022/10/13 10:44:52;;;;;;;;;12.40;12.40;;;;;;;;5111574;28;8773;-72
2022/10/13 10:47:30;;;;;;;;;10.80;10.40;;;;;;;;5110519;28;9531;-72
2022/10/13 10:50:01;;;;;;;;;14.60;12.20;;;;;;;;5109419;28;8824;-71
2022/10/13 10:52:32;;;;;;;;;11.40;11.00;;;;;;;;5110718;27;8956;-72
2022/10/13 10:55:16;;;;;;;;;9.20;9.20;;;;;;;;5109271;28;8912;-71
2022/10/13 10:58:01;;;;;;;;;13.80;11.60;;;;;;;;5108909;28;9527;-72
2022/10/13 11:00:26;;;;;;;;;13.25;11.75;;;;;;;;5110551;28;8785;-71
2022/10/13 11:03:01;;;;;;;;;14.33;13.33;;;;;;;;5110479;28;9563;-72
2022/10/13 11:05:44;;;;;;;;;13.50;12.00;;;;;;;;5110265;28;8762;-72
2022/10/13 11:08:25;;;;;;;;;11.75;11.00;;;;;;;;5109997;28;8777;-70
2022/10/13 11:11:10;;;;;;;;;13.50;12.50;;;;;;;;5110314;28;8885;-72
2022/10/13 11:13:48;;;;;;;;;15.00;13.00;;;;;;;;5109983;28;8852;-72
2022/10/13 11:16:43;;;;;;;;;17.50;12.50;;;;;;;;5110239;28;8782;-72
2022/10/13 11:19:26;;;;;;;;;12.75;12.00;;;;;;;;5036904;27;8774;-72
2022/10/13 11:21:51;;;;;;;;;11.50;11.00;;;;;;;;5109960;28;9562;-72
2022/10/13 11:24:32;;;;;;;;;11.00;10.00;;;;;;;;5110253;28;8781;-71
2022/10/13 11:27:17;;;;;;;;;16.75;13.75;;;;;;;;5109720;28;8809;-69
2022/10/13 11:29:42;;;;;;;;;14.75;12.75;;;;;;;;5110157;28;8801;-71
2022/10/13 11:35:04;;;;;;;;;13.50;10.50;;;;;;;;5107196;28;8793;-70
2022/10/13 11:37:48;;;;;;;;;10.50;10.50;;;;;;;;5068114;28;8795;-70
2022/10/13 11:40:23;;;;;;;;;11.75;11.75;;;;;;;;5069599;28;8782;-69
2022/10/13 11:43:01;;;;;;;;;13.75;11.25;;;;;;;;5090908;28;8797;-70
2022/10/13 11:45:29;;;;;;;;;14.25;11.75;;;;;;;;5109727;28;8800;-69
2022/10/13 11:48:07;;;;;;;;;12.25;11.00;;;;;;;;5109512;28;8811;-70
2022/10/13 11:50:43;;;;;;;;;13.25;13.25;;;;;;;;5107798;28;8801;-69
2022/10/13 11:53:20;;;;;;;;;10.75;10.75;;;;;;;;5109326;28;8809;-71
2022/10/13 11:55:51;;;;;;;;;12.00;11.50;;;;;;;;5109330;28;8769;-70
2022/10/13 11:58:18;;;;;;;;;15.75;14.00;;;;;;;;5109274;28;9503;-71
2022/10/13 12:00:57;;;;;;;;;13.75;13.00;;;;;;;;5109258;28;8904;-69
2022/10/13 12:03:33;;;;;;;;;14.50;12.25;;;;;;;;5107776;28;8809;-69
2022/10/13 12:06:00;;;;;;;;;13.25;12.00;;;;;;;;5109160;28;8932;-72
2022/10/13 12:08:27;;;;;;;;;12.50;11.00;;;;;;;;5109324;28;9479;-68
2022/10/13 12:10:56;;;;;;;;;13.75;11.00;;;;;;;;5109456;28;8812;-72
2022/10/13 12:13:23;;;;;;;;;21.00;19.00;;;;;;;;5107616;28;8875;-72
2022/10/13 12:15:58;;;;;;;;;7.00;7.00;;;;;;;;5109237;28;9065;-70
2022/10/13 12:18:26;;;;;;;;;11.00;11.00;;;;;;;;5109289;28;8773;-74
2022/10/13 12:20:56;;;;;;;;;13.00;10.50;;;;;;;;5108717;28;8821;-75
2022/10/13 12:23:21;;;;;;;;;10.75;10.00;;;;;;;;5109590;28;8782;-75
2022/10/13 12:25:48;;;;;;;;;15.33;13.33;;;;;;;;5108640;28;9667;-75
2022/10/13 12:28:19;;;;;;;;;12.75;12.00;;;;;;;;5109462;28;8850;-75
2022/10/13 12:30:51;;;;;;;;;11.50;11.50;;;;;;;;5112027;28;8847;-75
2022/10/13 12:33:26;;;;;;;;;13.50;12.25;;;;;;;;5113978;28;9532;-75
2022/10/13 12:35:51;;;;;;;;;12.00;12.00;;;;;;;;5113228;28;8789;-74
2022/10/13 12:38:18;;;;;;;;;15.00;11.67;;;;;;;;5112754;28;8959;-74
2022/10/13 12:40:44;;;;;;;;;12.67;10.67;;;;;;;;5113140;27;8785;-74
2022/10/13 12:43:15;;;;;;;;;12.00;12.00;;;;;;;;5112600;27;8984;-76
2022/10/13 12:45:41;;;;;;;;;12.75;11.25;;;;;;;;5112908;28;8769;-74
2022/10/13 12:48:26;;;;;;;;;12.33;11.67;;;;;;;;5112933;28;8821;-72
2022/10/13 12:50:52;;;;;;;;;13.00;12.00;;;;;;;;5111936;28;9944;-73
2022/10/13 12:53:25;;;;;;;;;10.00;10.00;;;;;;;;5113222;28;8915;-74
2022/10/13 12:55:58;;;;;;;;;12.00;11.67;;;;;;;;5113280;27;8793;-72
2022/10/13 12:58:23;;;;;;;;;13.67;11.33;;;;;;;;5112975;28;8951;-75
2022/10/13 13:01:09;;;;;;;;;11.67;10.00;;;;;;;;5112940;28;8946;-75
2022/10/13 13:03:36;;;;;;;;;15.33;11.33;;;;;;;;5112043;28;8981;-71
2022/10/13 13:06:13;;;;;;;;;12.67;11.33;;;;;;;;5120122;28;9862;-74
2022/10/13 13:08:40;;;;;;;;;14.00;10.67;;;;;;;;5104007;28;9684;-73
2022/10/13 13:11:06;;;;;;;;;12.33;12.00;;;;;;;;5092806;28;9083;-73
2022/10/13 13:13:32;;;;;;;;;10.33;10.00;;;;;;;;5109639;28;8962;-72
2022/10/13 13:16:14;;;;;;;;;1.33;0.00;;;;;;;;5112860;28;9000;-72
2022/10/13 13:18:41;;;;;;;;;13.33;11.00;;;;;;;;5112536;28;8900;-74
2022/10/13 13:21:07;;;;;;;;;14.33;12.00;;;;;;;;5112353;28;9096;-70
2022/10/13 13:23:34;;;;;;;;;10.67;10.67;;;;;;;;5110932;28;9060;-73
2022/10/13 13:26:05;;;;;;;;;14.67;12.00;;;;;;;;5112406;28;9010;-73
2022/10/13 13:28:31;;;;;;;;;8.67;7.67;;;;;;;;5112403;28;8965;-73
2022/10/13 13:30:57;;;;;;;;;12.33;11.00;;;;;;;;5110927;28;9189;-73
2022/10/13 13:33:22;;;;;;;;;11.67;11.00;;;;;;;;5111724;28;9143;-72
2022/10/13 13:35:48;;;;;;;;;10.00;9.67;;;;;;;;5112003;28;9057;-75
2022/10/13 13:38:13;;;;;;;;;10.67;10.67;;;;;;;;5111824;28;8843;-73
2022/10/13 13:40:38;;;;;;;;;11.00;11.00;;;;;;;;5112776;28;8777;-73
2022/10/13 13:43:04;;;;;;;;;11.00;11.00;;;;;;;;5112140;27;8833;-73
2022/10/13 13:45:29;;;;;;;;;13.33;12.00;;;;;;;;5112099;28;8824;-73
2022/10/13 13:47:54;;;;;;;;;10.67;10.33;;;;;;;;5112232;28;8819;-75
2022/10/13 13:50:22;;;;;;;;;11.00;10.67;;;;;;;;5112516;28;9512;-77
2022/10/13 13:52:47;;;;;;;;;12.67;12.67;;;;;;;;5111412;28;8888;-75
2022/10/13 13:55:13;;;;;;;;;11.00;11.00;;;;;;;;5110785;28;9243;-74
2022/10/13 13:57:38;;;;;;;;;12.33;11.33;;;;;;;;5111653;28;8839;-74
2022/10/13 14:00:04;;;;;;;;;10.33;9.00;;;;;;;;5111724;28;8778;-72
2022/10/13 14:02:29;;;;;;;;;13.67;13.00;;;;;;;;5111693;28;8859;-70
2022/10/13 14:04:54;;;;;;;;;12.33;11.00;;;;;;;;5112034;27;8789;-72
2022/10/13 14:07:19;;;;;;;;;14.67;11.33;;;;;;;;5111270;28;8909;-72
2022/10/13 14:09:45;;;;;;;;;12.00;9.33;;;;;;;;5111965;28;8785;-74
2022/10/13 14:12:10;;;;;;;;;13.67;13.67;;;;;;;;5111540;28;9640;-73
2022/10/13 14:14:36;;;;;;;;;11.67;11.67;;;;;;;;5111313;28;9547;-72
2022/10/13 14:17:02;;;;;;;;;12.33;11.00;;;;;;;;5111321;28;9501;-72
2022/10/13 14:19:28;;;;;;;;;12.33;12.00;;;;;;;;5109620;28;8836;-73
2022/10/13 14:21:53;;;;;;;;;12.33;10.00;;;;;;;;5110794;28;9258;-74
2022/10/13 14:24:18;;;;;;;;;11.67;9.67;;;;;;;;5111087;27;8900;-72
2022/10/13 14:26:44;;;;;;;;;13.00;13.00;;;;;;;;5111179;28;8859;-74
2022/10/13 14:29:09;;;;;;;;;10.00;10.00;;;;;;;;5111212;28;8893;-73
2022/10/13 14:31:34;;;;;;;;;10.00;10.00;;;;;;;;5112094;28;8809;-79
2022/10/13 14:34:00;;;;;;;;;15.00;11.25;;;;;;;;5112053;28;8818;-80
2022/10/13 14:36:25;;;;;;;;;11.33;10.00;;;;;;;;5110427;28;8877;-75
2022/10/13 14:38:51;;;;;;;;;14.25;11.00;;;;;;;;5111262;28;8812;-74
2022/10/13 14:41:16;;;;;;;;;12.50;12.00;;;;;;;;5111216;28;8847;-72
2022/10/13 14:43:42;;;;;;;;;12.00;11.00;;;;;;;;5110523;28;8841;-74
2022/10/13 14:46:07;;;;;;;;;11.00;11.00;;;;;;;;5109453;28;8806;-77
2022/10/13 14:48:33;;;;;;;;;12.00;12.00;;;;;;;;5110885;28;8836;-71
2022/10/13 14:51:02;;;;;;;;;12.25;11.75;;;;;;;;5111242;28;8769;-75
2022/10/13 14:53:27;;;;;;;;;17.50;14.50;;;;;;;;5110267;28;9588;-73
2022/10/13 14:55:53;;;;;;;;;15.25;11.75;;;;;;;;5111562;28;9723;-73
2022/10/13 14:58:18;;;;;;;;;14.25;12.25;;;;;;;;5111333;28;8777;-73
2022/10/13 15:00:43;;;;;;;;;13.00;12.50;;;;;;;;5111314;28;9038;-75
2022/10/13 15:03:09;;;;;;;;;12.00;11.00;;;;;;;;5092175;28;8915;-73
2022/10/13 15:05:34;;;;;;;;;12.25;12.00;;;;;;;;5089776;28;8776;-73
2022/10/13 15:08:00;;;;;;;;;14.00;12.00;;;;;;;;5089351;28;8784;-72
2022/10/13 15:10:25;;;;;;;;;13.00;12.75;;;;;;;;5089390;28;8889;-76
2022/10/13 15:12:50;;;;;;;;;12.50;12.50;;;;;;;;5101174;28;8856;-76
2022/10/13 15:15:15;;;;;;;;;8.75;6.50;;;;;;;;5110452;28;8801;-75
2022/10/13 15:17:41;;;;;;;;;16.25;13.75;;;;;;;;5110109;28;8801;-74
2022/10/13 15:20:06;;;;;;;;;14.00;12.50;;;;;;;;5110504;28;9551;-80
2022/10/13 15:22:32;;;;;;;;;11.75;11.75;;;;;;;;5111167;28;8889;-75
2022/10/13 15:24:57;;;;;;;;;19.25;14.00;;;;;;;;5110264;28;8805;-72
2022/10/13 15:27:22;;;;;;;;;13.00;12.00;;;;;;;;5114233;28;8785;-73
2022/10/13 15:29:48;;;;;;;;;13.00;11.75;;;;;;;;5113362;28;9464;-75
2022/10/13 15:32:16;;;;;;;;;14.75;12.25;;;;;;;;5109652;28;8849;-75
2022/10/13 15:34:42;;;;;;;;;14.25;11.50;;;;;;;;5111637;28;8785;-76
2022/10/13 15:37:07;;;;;;;;;12.00;11.50;;;;;;;;5111563;28;9501;-74
2022/10/13 15:39:33;;;;;;;;;14.25;11.00;;;;;;;;5093307;28;9042;-77
2022/10/13 15:41:58;;;;;;;;;13.50;13.50;;;;;;;;5110871;28;8817;-77
2022/10/13 15:44:24;;;;;;;;;12.50;11.25;;;;;;;;5111388;28;8781;-77
2022/10/13 15:46:50;;;;;;;;;9.50;8.50;;;;;;;;5111077;28;8785;-76
2022/10/13 15:49:15;;;;;;;;;12.25;12.25;;;;;;;;5111784;28;8805;-78
2022/10/13 15:51:40;;;;;;;;;16.25;12.75;;;;;;;;5111144;28;9939;-76
